sensor_id;sensor_type;location;lat;lon;timestamp;temperature;humidity
34303;DHT22;20785;50.020;19.916;2022-10-16T00:03:28;16.70;61.85
34303;DHT22;20785;50.020;19.916;2022-10-16T00:09:29;18.00;63.29
34303;DHT22;20785;50.020;19.916;2022-10-16T00:15:34;18.97;61.77
34303;DHT22;20785;50.020;19.916;2022-10-16T00:21:37;19.60;60.67
34303;DHT22;20785;50.020;19.916;2022-10-16T00:27:38;19.91;58.63
34303;DHT22;20785;50.020;19.916;2022-10-16T00:33:40;18.64;58.01
34303;DHT22;20785;50.020;19.916;2022-10-16T00:39:41;17.52;59.67
34303;DHT22;20785;50.020;19.916;2022-10-16T00:45:43;16.77;61.69
34303;DHT22;20785;50.020;19.916;2022-10-16T00:51:53;17.98;63.93
34303;DHT22;20785;50.020;19.916;2022-10-16T00:57:56;19.13;61.68
34303;DHT22;20785;50.020;19.916;2022-10-16T01:04:02;19.60;59.93
34303;DHT22;20785;50.020;19.916;2022-10-16T01:16:34;17.21;61.10
34303;DHT22;20785;50.020;19.916;2022-10-16T01:23:10;16.53;62.66
34303;DHT22;20785;50.020;19.916;2022-10-16T01:29:32;16.94;63.96
34303;DHT22;20785;50.020;19.916;2022-10-16T01:42:52;17.10;64.20
34303;DHT22;20785;50.020;19.916;2022-10-16T01:48:56;17.18;64.24
34303;DHT22;20785;50.020;19.916;2022-10-16T01:54:59;17.21;64.36
34303;DHT22;20785;50.020;19.916;2022-10-16T02:01:04;17.25;64.33
34303;DHT22;20785;50.020;19.916;2022-10-16T02:07:08;17.18;64.48
34303;DHT22;20785;50.020;19.916;2022-10-16T02:13:21;17.05;64.51
34303;DHT22;20785;50.020;19.916;2022-10-16T02:19:22;17.08;64.73
34303;DHT22;20785;50.020;19.916;2022-10-16T02:25:32;17.17;64.80
34303;DHT22;20785;50.020;19.916;2022-10-16T02:31:37;17.28;64.65
34303;DHT22;20785;50.020;19.916;2022-10-16T02:37:40;17.43;64.38
34303;DHT22;20785;50.020;19.916;2022-10-16T02:43:42;17.54;63.93
34303;DHT22;20785;50.020;19.916;2022-10-16T02:49:43;17.57;63.74
34303;DHT22;20785;50.020;19.916;2022-10-16T02:55:45;17.53;63.63
34303;DHT22;20785;50.020;19.916;2022-10-16T03:01:46;17.52;63.38
34303;DHT22;20785;50.020;19.916;2022-10-16T03:07:48;17.50;63.45
34303;DHT22;20785;50.020;19.916;2022-10-16T03:13:49;17.48;63.47
34303;DHT22;20785;50.020;19.916;2022-10-16T03:19:50;17.42;63.50
34303;DHT22;20785;50.020;19.916;2022-10-16T03:25:52;17.31;63.50
34303;DHT22;20785;50.020;19.916;2022-10-16T03:31:53;17.22;63.55
34303;DHT22;20785;50.020;19.916;2022-10-16T03:37:54;17.14;63.53
34303;DHT22;20785;50.020;19.916;2022-10-16T03:43:56;17.03;63.63
34303;DHT22;20785;50.020;19.916;2022-10-16T03:49:57;16.94;63.66
34303;DHT22;20785;50.020;19.916;2022-10-16T03:55:58;16.77;63.63
34303;DHT22;20785;50.020;19.916;2022-10-16T04:01:59;16.67;63.76
34303;DHT22;20785;50.020;19.916;2022-10-16T04:08:01;16.67;63.88
34303;DHT22;20785;50.020;19.916;2022-10-16T04:14:03;16.52;63.97
34303;DHT22;20785;50.020;19.916;2022-10-16T04:20:05;16.36;64.16
34303;DHT22;20785;50.020;19.916;2022-10-16T04:26:07;16.18;64.52
34303;DHT22;20785;50.020;19.916;2022-10-16T04:32:09;16.10;64.85
34303;DHT22;20785;50.020;19.916;2022-10-16T04:38:10;15.94;65.09
34303;DHT22;20785;50.020;19.916;2022-10-16T04:44:12;15.72;65.27
34303;DHT22;20785;50.020;19.916;2022-10-16T04:50:13;15.65;65.66
34303;DHT22;20785;50.020;19.916;2022-10-16T04:56:14;15.61;65.65
34303;DHT22;20785;50.020;19.916;2022-10-16T05:02:16;15.55;65.76
34303;DHT22;20785;50.020;19.916;2022-10-16T05:08:17;15.54;65.71
34303;DHT22;20785;50.020;19.916;2022-10-16T05:14:19;15.55;65.83
34303;DHT22;20785;50.020;19.916;2022-10-16T05:20:21;15.51;65.64
34303;DHT22;20785;50.020;19.916;2022-10-16T05:26:23;15.52;65.70
34303;DHT22;20785;50.020;19.916;2022-10-16T05:32:24;15.54;65.83
34303;DHT22;20785;50.020;19.916;2022-10-16T05:38:26;15.58;65.82
34303;DHT22;20785;50.020;19.916;2022-10-16T05:44:27;15.66;66.03
34303;DHT22;20785;50.020;19.916;2022-10-16T05:50:29;15.72;65.80
34303;DHT22;20785;50.020;19.916;2022-10-16T05:56:30;15.72;65.94
34303;DHT22;20785;50.020;19.916;2022-10-16T06:02:31;15.77;66.09
34303;DHT22;20785;50.020;19.916;2022-10-16T06:08:35;15.84;66.18
34303;DHT22;20785;50.020;19.916;2022-10-16T06:14:36;15.93;66.21
34303;DHT22;20785;50.020;19.916;2022-10-16T06:20:38;15.97;66.29
34303;DHT22;20785;50.020;19.916;2022-10-16T06:26:39;15.97;66.46
34303;DHT22;20785;50.020;19.916;2022-10-16T06:32:41;16.04;66.68
34303;DHT22;20785;50.020;19.916;2022-10-16T06:38:43;16.20;66.82
34303;DHT22;20785;50.020;19.916;2022-10-16T06:44:45;16.34;66.75
34303;DHT22;20785;50.020;19.916;2022-10-16T06:51:08;16.48;66.79
34303;DHT22;20785;50.020;19.916;2022-10-16T06:57:09;16.66;66.85
34303;DHT22;20785;50.020;19.916;2022-10-16T07:03:12;16.84;66.72
34303;DHT22;20785;50.020;19.916;2022-10-16T07:09:14;16.97;66.68
34303;DHT22;20785;50.020;19.916;2022-10-16T07:15:21;17.05;66.50
34303;DHT22;20785;50.020;19.916;2022-10-16T07:21:26;17.14;66.43
34303;DHT22;20785;50.020;19.916;2022-10-16T07:27:32;17.22;66.31
34303;DHT22;20785;50.020;19.916;2022-10-16T07:33:34;17.19;66.23
34303;DHT22;20785;50.020;19.916;2022-10-16T07:39:38;17.25;66.27
34303;DHT22;20785;50.020;19.916;2022-10-16T07:45:49;17.32;66.29
34303;DHT22;20785;50.020;19.916;2022-10-16T07:51:53;17.36;66.23
34303;DHT22;20785;50.020;19.916;2022-10-16T07:57:54;17.38;66.13
34303;DHT22;20785;50.020;19.916;2022-10-16T08:03:59;17.49;66.15
34303;DHT22;20785;50.020;19.916;2022-10-16T08:10:03;17.67;66.11
34303;DHT22;20785;50.020;19.916;2022-10-16T08:16:05;17.91;65.61
34303;DHT22;20785;50.020;19.916;2022-10-16T08:22:08;18.05;65.07
34303;DHT22;20785;50.020;19.916;2022-10-16T08:28:11;18.21;64.69
34303;DHT22;20785;50.020;19.916;2022-10-16T08:34:14;18.35;64.26
34303;DHT22;20785;50.020;19.916;2022-10-16T08:40:28;18.53;63.98
34303;DHT22;20785;50.020;19.916;2022-10-16T08:46:51;18.81;63.65
34303;DHT22;20785;50.020;19.916;2022-10-16T08:52:51;19.26;63.17
34303;DHT22;20785;50.020;19.916;2022-10-16T08:58:54;19.81;62.27
34303;DHT22;20785;50.020;19.916;2022-10-16T09:12:06;20.64;60.80
34303;DHT22;20785;50.020;19.916;2022-10-16T09:18:29;20.88;60.38
34303;DHT22;20785;50.020;19.916;2022-10-16T09:24:33;20.98;60.16
34303;DHT22;20785;50.020;19.916;2022-10-16T09:30:35;20.55;60.34
34303;DHT22;20785;50.020;19.916;2022-10-16T09:36:43;20.19;60.82
34303;DHT22;20785;50.020;19.916;2022-10-16T09:42:48;20.08;61.59
34303;DHT22;20785;50.020;19.916;2022-10-16T09:48:54;20.09;61.57
34303;DHT22;20785;50.020;19.916;2022-10-16T09:54:58;20.13;61.94
34303;DHT22;20785;50.020;19.916;2022-10-16T10:00:59;20.25;62.12
34303;DHT22;20785;50.020;19.916;2022-10-16T10:07:01;20.39;62.20
34303;DHT22;20785;50.020;19.916;2022-10-16T10:13:02;20.52;61.97
34303;DHT22;20785;50.020;19.916;2022-10-16T10:19:03;20.64;61.56
34303;DHT22;20785;50.020;19.916;2022-10-16T10:25:16;20.77;61.17
34303;DHT22;20785;50.020;19.916;2022-10-16T10:44:52;21.31;59.83
34303;DHT22;20785;50.020;19.916;2022-10-16T10:51:04;21.39;59.06
34303;DHT22;20785;50.020;19.916;2022-10-16T10:57:30;21.47;59.36
34303;DHT22;20785;50.020;19.916;2022-10-16T11:04:07;21.54;58.36
34303;DHT22;20785;50.020;19.916;2022-10-16T11:10:16;21.64;58.72
34303;DHT22;20785;50.020;19.916;2022-10-16T11:16:35;21.75;58.56
34303;DHT22;20785;50.020;19.916;2022-10-16T11:22:45;21.91;58.11
34303;DHT22;20785;50.020;19.916;2022-10-16T11:28:53;21.96;57.28
34303;DHT22;20785;50.020;19.916;2022-10-16T11:35:02;21.93;56.87
34303;DHT22;20785;50.020;19.916;2022-10-16T11:41:18;21.95;57.03
34303;DHT22;20785;50.020;19.916;2022-10-16T11:53:59;22.00;56.85
34303;DHT22;20785;50.020;19.916;2022-10-16T12:06:33;21.85;57.23
34303;DHT22;20785;50.020;19.916;2022-10-16T12:12:39;21.75;56.96
34303;DHT22;20785;50.020;19.916;2022-10-16T12:18:45;21.72;57.04
34303;DHT22;20785;50.020;19.916;2022-10-16T12:24:53;21.74;57.08
34303;DHT22;20785;50.020;19.916;2022-10-16T12:31:07;21.78;57.00
34303;DHT22;20785;50.020;19.916;2022-10-16T12:37:34;21.83;56.91
34303;DHT22;20785;50.020;19.916;2022-10-16T12:43:40;21.93;56.78
34303;DHT22;20785;50.020;19.916;2022-10-16T12:49:52;21.96;56.38
34303;DHT22;20785;50.020;19.916;2022-10-16T12:56:16;22.05;56.32
34303;DHT22;20785;50.020;19.916;2022-10-16T13:23:04;22.06;56.10
34303;DHT22;20785;50.020;19.916;2022-10-16T13:29:13;21.99;56.19
34303;DHT22;20785;50.020;19.916;2022-10-16T13:35:26;21.92;56.25
34303;DHT22;20785;50.020;19.916;2022-10-16T13:41:31;21.83;56.68
34303;DHT22;20785;50.020;19.916;2022-10-16T13:47:32;21.82;56.83
34303;DHT22;20785;50.020;19.916;2022-10-16T13:53:35;21.71;57.09
34303;DHT22;20785;50.020;19.916;2022-10-16T13:59:39;21.54;57.35
34303;DHT22;20785;50.020;19.916;2022-10-16T14:05:48;21.44;57.42
34303;DHT22;20785;50.020;19.916;2022-10-16T14:12:00;21.29;57.64
34303;DHT22;20785;50.020;19.916;2022-10-16T14:18:06;21.12;58.15
34303;DHT22;20785;50.020;19.916;2022-10-16T14:24:13;21.05;58.44
34303;DHT22;20785;50.020;19.916;2022-10-16T14:30:20;20.98;58.77
34303;DHT22;20785;50.020;19.916;2022-10-16T14:36:22;20.91;58.88
34303;DHT22;20785;50.020;19.916;2022-10-16T14:42:25;20.77;59.03
34303;DHT22;20785;50.020;19.916;2022-10-16T14:48:29;20.60;59.36
34303;DHT22;20785;50.020;19.916;2022-10-16T14:54:31;20.44;59.62
34303;DHT22;20785;50.020;19.916;2022-10-16T15:00:32;20.26;59.96
34303;DHT22;20785;50.020;19.916;2022-10-16T15:06:33;20.11;60.29
34303;DHT22;20785;50.020;19.916;2022-10-16T15:12:43;19.97;60.75
34303;DHT22;20785;50.020;19.916;2022-10-16T15:18:41;19.84;61.11
34303;DHT22;20785;50.020;19.916;2022-10-16T15:24:43;19.77;61.30
34303;DHT22;20785;50.020;19.916;2022-10-16T15:30:45;19.65;61.74
34303;DHT22;20785;50.020;19.916;2022-10-16T15:36:48;19.49;62.24
34303;DHT22;20785;50.020;19.916;2022-10-16T15:42:52;20.04;62.25
34303;DHT22;20785;50.020;19.916;2022-10-16T15:48:59;20.37;61.48
34303;DHT22;20785;50.020;19.916;2022-10-16T15:55:01;20.50;61.11
34303;DHT22;20785;50.020;19.916;2022-10-16T16:01:13;20.51;60.87
34303;DHT22;20785;50.020;19.916;2022-10-16T16:07:16;20.57;60.75
34303;DHT22;20785;50.020;19.916;2022-10-16T16:13:19;20.52;60.45
34303;DHT22;20785;50.020;19.916;2022-10-16T16:19:20;20.46;60.38
34303;DHT22;20785;50.020;19.916;2022-10-16T16:25:24;20.39;59.87
34303;DHT22;20785;50.020;19.916;2022-10-16T16:31:28;20.32;60.07
34303;DHT22;20785;50.020;19.916;2022-10-16T16:37:34;20.23;60.01
34303;DHT22;20785;50.020;19.916;2022-10-16T16:43:36;20.12;60.00
34303;DHT22;20785;50.020;19.916;2022-10-16T16:49:37;20.01;60.02
34303;DHT22;20785;50.020;19.916;2022-10-16T16:55:41;19.86;60.24
34303;DHT22;20785;50.020;19.916;2022-10-16T17:01:42;19.68;60.47
34303;DHT22;20785;50.020;19.916;2022-10-16T17:07:45;19.54;60.75
34303;DHT22;20785;50.020;19.916;2022-10-16T17:13:52;19.36;60.92
34303;DHT22;20785;50.020;19.916;2022-10-16T17:19:57;19.37;60.85
34303;DHT22;20785;50.020;19.916;2022-10-16T17:26:16;19.21;60.88
34303;DHT22;20785;50.020;19.916;2022-10-16T17:32:23;19.05;61.17
34303;DHT22;20785;50.020;19.916;2022-10-16T17:38:30;18.95;61.34
34303;DHT22;20785;50.020;19.916;2022-10-16T17:44:58;18.97;61.45
34303;DHT22;20785;50.020;19.916;2022-10-16T17:51:07;18.85;61.35
34303;DHT22;20785;50.020;19.916;2022-10-16T17:57:26;18.83;61.30
34303;DHT22;20785;50.020;19.916;2022-10-16T18:03:24;18.71;61.34
34303;DHT22;20785;50.020;19.916;2022-10-16T18:09:32;18.62;61.41
34303;DHT22;20785;50.020;19.916;2022-10-16T18:15:38;18.53;61.62
34303;DHT22;20785;50.020;19.916;2022-10-16T18:21:40;18.47;61.69
34303;DHT22;20785;50.020;19.916;2022-10-16T18:27:50;18.39;61.86
34303;DHT22;20785;50.020;19.916;2022-10-16T18:33:54;18.30;62.04
34303;DHT22;20785;50.020;19.916;2022-10-16T18:40:05;18.12;62.33
34303;DHT22;20785;50.020;19.916;2022-10-16T18:46:21;18.07;62.71
34303;DHT22;20785;50.020;19.916;2022-10-16T18:52:24;17.91;62.85
34303;DHT22;20785;50.020;19.916;2022-10-16T18:58:28;17.84;62.97
34303;DHT22;20785;50.020;19.916;2022-10-16T19:04:30;17.87;62.90
34303;DHT22;20785;50.020;19.916;2022-10-16T19:10:35;17.86;63.03
34303;DHT22;20785;50.020;19.916;2022-10-16T19:16:42;17.86;62.92
34303;DHT22;20785;50.020;19.916;2022-10-16T19:22:51;17.84;63.00
34303;DHT22;20785;50.020;19.916;2022-10-16T19:29:01;17.74;63.00
34303;DHT22;20785;50.020;19.916;2022-10-16T19:35:03;17.70;63.21
34303;DHT22;20785;50.020;19.916;2022-10-16T19:47:16;17.66;63.21
34303;DHT22;20785;50.020;19.916;2022-10-16T19:53:19;17.63;63.15
34303;DHT22;20785;50.020;19.916;2022-10-16T19:59:23;17.54;63.11
34303;DHT22;20785;50.020;19.916;2022-10-16T20:05:28;17.46;63.10
34303;DHT22;20785;50.020;19.916;2022-10-16T20:11:34;17.31;63.30
34303;DHT22;20785;50.020;19.916;2022-10-16T20:17:42;17.11;63.64
34303;DHT22;20785;50.020;19.916;2022-10-16T20:23:43;16.97;64.05
34303;DHT22;20785;50.020;19.916;2022-10-16T20:29:50;16.93;64.55
34303;DHT22;20785;50.020;19.916;2022-10-16T20:35:58;16.81;64.68
34303;DHT22;20785;50.020;19.916;2022-10-16T20:41:59;16.73;64.91
34303;DHT22;20785;50.020;19.916;2022-10-16T20:48:01;16.66;65.18
34303;DHT22;20785;50.020;19.916;2022-10-16T20:54:05;16.60;65.34
34303;DHT22;20785;50.020;19.916;2022-10-16T21:00:10;16.51;65.39
34303;DHT22;20785;50.020;19.916;2022-10-16T21:06:17;16.42;65.46
34303;DHT22;20785;50.020;19.916;2022-10-16T21:12:27;16.32;65.75
34303;DHT22;20785;50.020;19.916;2022-10-16T21:18:31;16.25;66.11
34303;DHT22;20785;50.020;19.916;2022-10-16T21:24:41;16.20;66.23
34303;DHT22;20785;50.020;19.916;2022-10-16T21:30:48;16.14;66.12
34303;DHT22;20785;50.020;19.916;2022-10-16T21:36:56;16.06;66.00
34303;DHT22;20785;50.020;19.916;2022-10-16T21:43:04;15.97;66.22
34303;DHT22;20785;50.020;19.916;2022-10-16T21:49:15;15.93;66.46
34303;DHT22;20785;50.020;19.916;2022-10-16T21:55:19;15.84;66.64
34303;DHT22;20785;50.020;19.916;2022-10-16T22:01:26;15.77;66.69
34303;DHT22;20785;50.020;19.916;2022-10-16T22:07:33;15.66;66.77
34303;DHT22;20785;50.020;19.916;2022-10-16T22:13:37;15.58;66.96
34303;DHT22;20785;50.020;19.916;2022-10-16T22:19:39;15.44;66.96
34303;DHT22;20785;50.020;19.916;2022-10-16T22:25:41;15.34;67.46
34303;DHT22;20785;50.020;19.916;2022-10-16T22:31:48;15.31;67.77
34303;DHT22;20785;50.020;19.916;2022-10-16T22:37:50;15.31;67.90
34303;DHT22;20785;50.020;19.916;2022-10-16T22:43:52;15.33;67.88
34303;DHT22;20785;50.020;19.916;2022-10-16T22:50:22;15.27;68.08
34303;DHT22;20785;50.020;19.916;2022-10-16T22:56:18;15.28;68.38
34303;DHT22;20785;50.020;19.916;2022-10-16T23:02:28;15.31;68.15
34303;DHT22;20785;50.020;19.916;2022-10-16T23:08:31;15.37;68.02
34303;DHT22;20785;50.020;19.916;2022-10-16T23:14:33;15.37;67.77
34303;DHT22;20785;50.020;19.916;2022-10-16T23:20:42;15.31;67.56
34303;DHT22;20785;50.020;19.916;2022-10-16T23:26:46;15.22;67.70
34303;DHT22;20785;50.020;19.916;2022-10-16T23:32:48;15.14;67.78
34303;DHT22;20785;50.020;19.916;2022-10-16T23:38:50;15.07;67.76
34303;DHT22;20785;50.020;19.916;2022-10-16T23:44:52;15.02;67.66
34303;DHT22;20785;50.020;19.916;2022-10-16T23:50:53;15.04;67.88
34303;DHT22;20785;50.020;19.916;2022-10-16T23:56:54;14.94;67.92
